Terminal Aerodrome Forecast
Issued by NWS Quad Cities IA IL

Current Version | Previous Version | Text Only | Print | Product List | Glossary On
Versions: 1 2 3 4 5 6 7 8 9 10 11 12 13 14 15 16
000
FTUS43 KDVN 242300
TAFDBQ
TAF
KDBQ 242329Z 2500/2524 17006KT P6SM FEW040 BKN200
     FM250800 15008KT P6SM VCTS SCT050CB OVC250
      TEMPO 2509/2512 3SM TSRA BR BKN040CB
     FM251200 16009KT 6SM -RA BR VCTS OVC040CB
     FM251500 18014G19KT P6SM FEW015 BKN035=

USA.gov is the U.S. government's official web portal to all federal, state and local government web resources and services.